Huslia Airport
PAHL : now visible

Airfield :











YOU CAN JOIN US ON...

 
LOGIN :

Register | Disclaimer

   EN    FR    IT 

 









Legend :    VFR   Marginal VFR   IFR   Intensive IFR   Very Intensive IFR
Visi :
Ceiling :
>= 8 km
>= 3000ft
5 to 8 km
1000 to 3000 ft
1500m to 5 km
500 to 1000 ft
800 to 1500m
200 to 500 ft
< 800m
< 200 ft
Symbols :   Thunderstorms  Fog  Heavy snow  Heavy precipitations  Wind > 20 kt






- Airport Elevation : 220 ft
- IATA code : HLA


PAHL - Huslia

CURRENT METAR :
  • 010756Z AUTO 18006KT 10SM OVC046 14/13 A2983 RMK AO2 SLP103 T01440133

EXPIRED METARs :
  • 010656Z AUTO 18007KT 10SM FEW039 BKN055 BKN110 15/13 A2981 RMK AO2 RAE09 SLP097 P0000 T01500133
  • 010641Z AUTO 18008KT 10SM SCT017 BKN039 OVC055 14/13 A2981 RMK AO2 RAE09 P0000
  • 010556Z AUTO 22009KT 6SM -RA BR FEW013 BKN027 OVC035 14/13 A2981 RMK AO2 RAB25 SLP096 P0002 60002 T01440128 10178 20144 53019
  • 010541Z AUTO 21007KT 10SM -RA SCT013 BKN025 OVC038 15/13 A2981 RMK AO2 RAB25 P0002

TAF N/A
PAZA FIR / North America



MET'MAP, your aeronautical weather chart ! - Copyright ORBIFLY December 2007 - Disclaimer

ORBIFLY MET'MAP TEAM :

Programming & Development : Alexandra Zaïnal
Concept & original design : Baudouin d'Aumeries
Assistance for programming : Marc-Olivier Méhu
Technical & hardware support : Manuel Goepfert

Contact : metmap@orbifly.com




SOURCES & CREDITS :

   NOAA       Earth
Advisory